sensor_id;sensor_type;location;lat;lon;timestamp;temperature;humidity
15969;DHT22;8085;53.472;9.794;2023-06-01T00:00:08;12.20;99.90
15969;DHT22;8085;53.472;9.794;2023-06-01T00:02:36;12.20;99.90
15969;DHT22;8085;53.472;9.794;2023-06-01T00:05:04;12.30;99.90
15969;DHT22;8085;53.472;9.794;2023-06-01T00:07:37;12.20;99.90
15969;DHT22;8085;53.472;9.794;2023-06-01T00:10:05;12.20;99.90
15969;DHT22;8085;53.472;9.794;2023-06-01T00:12:32;12.20;99.90
15969;DHT22;8085;53.472;9.794;2023-06-01T00:15:02;12.20;99.90
15969;DHT22;8085;53.472;9.794;2023-06-01T00:17:31;12.20;99.90
15969;DHT22;8085;53.472;9.794;2023-06-01T00:19:58;12.10;99.90
15969;DHT22;8085;53.472;9.794;2023-06-01T00:22:27;12.10;99.90
15969;DHT22;8085;53.472;9.794;2023-06-01T00:25:02;12.10;99.90
15969;DHT22;8085;53.472;9.794;2023-06-01T00:27:30;12.10;99.90
15969;DHT22;8085;53.472;9.794;2023-06-01T00:30:00;12.10;99.90
15969;DHT22;8085;53.472;9.794;2023-06-01T00:32:27;12.10;99.90
15969;DHT22;8085;53.472;9.794;2023-06-01T00:34:56;12.10;99.90
15969;DHT22;8085;53.472;9.794;2023-06-01T00:37:31;12.10;99.90
15969;DHT22;8085;53.472;9.794;2023-06-01T00:40:04;12.10;99.90
15969;DHT22;8085;53.472;9.794;2023-06-01T00:42:32;12.10;99.90
15969;DHT22;8085;53.472;9.794;2023-06-01T00:44:59;12.00;99.90
15969;DHT22;8085;53.472;9.794;2023-06-01T00:47:26;11.90;99.90
15969;DHT22;8085;53.472;9.794;2023-06-01T00:49:53;12.00;99.90
15969;DHT22;8085;53.472;9.794;2023-06-01T00:52:26;12.00;99.90
15969;DHT22;8085;53.472;9.794;2023-06-01T00:54:58;11.90;99.90
15969;DHT22;8085;53.472;9.794;2023-06-01T00:57:28;11.90;99.90
15969;DHT22;8085;53.472;9.794;2023-06-01T00:59:57;11.90;99.90
15969;DHT22;8085;53.472;9.794;2023-06-01T01:02:41;11.90;99.90
15969;DHT22;8085;53.472;9.794;2023-06-01T01:05:12;11.90;99.90
15969;DHT22;8085;53.472;9.794;2023-06-01T01:08:00;12.00;99.90
15969;DHT22;8085;53.472;9.794;2023-06-01T01:10:31;12.00;99.90
15969;DHT22;8085;53.472;9.794;2023-06-01T01:15:56;12.00;99.90
15969;DHT22;8085;53.472;9.794;2023-06-01T01:18:30;12.00;99.90
15969;DHT22;8085;53.472;9.794;2023-06-01T01:21:09;12.00;99.90
15969;DHT22;8085;53.472;9.794;2023-06-01T01:24:11;12.10;99.90
15969;DHT22;8085;53.472;9.794;2023-06-01T01:27:01;12.00;99.90
15969;DHT22;8085;53.472;9.794;2023-06-01T01:29:33;12.00;99.20
15969;DHT22;8085;53.472;9.794;2023-06-01T01:32:03;11.90;99.50
15969;DHT22;8085;53.472;9.794;2023-06-01T01:34:33;11.90;99.90
15969;DHT22;8085;53.472;9.794;2023-06-01T01:37:03;11.90;99.70
15969;DHT22;8085;53.472;9.794;2023-06-01T01:39:33;11.90;99.90
15969;DHT22;8085;53.472;9.794;2023-06-01T01:42:09;12.00;99.90
15969;DHT22;8085;53.472;9.794;2023-06-01T01:44:38;11.90;98.40
15969;DHT22;8085;53.472;9.794;2023-06-01T01:47:16;12.00;94.50
15969;DHT22;8085;53.472;9.794;2023-06-01T01:50:12;12.00;93.40
15969;DHT22;8085;53.472;9.794;2023-06-01T01:52:42;12.00;95.20
15969;DHT22;8085;53.472;9.794;2023-06-01T01:55:12;12.00;96.00
15969;DHT22;8085;53.472;9.794;2023-06-01T01:57:50;12.10;97.50
15969;DHT22;8085;53.472;9.794;2023-06-01T02:00:22;12.00;95.70
15969;DHT22;8085;53.472;9.794;2023-06-01T02:02:54;12.00;96.00
15969;DHT22;8085;53.472;9.794;2023-06-01T02:05:21;12.00;94.40
15969;DHT22;8085;53.472;9.794;2023-06-01T02:07:49;12.00;93.80
15969;DHT22;8085;53.472;9.794;2023-06-01T02:10:16;11.90;93.20
15969;DHT22;8085;53.472;9.794;2023-06-01T02:12:46;12.00;90.10
15969;DHT22;8085;53.472;9.794;2023-06-01T02:15:13;12.00;90.90
15969;DHT22;8085;53.472;9.794;2023-06-01T02:17:42;12.00;91.40
15969;DHT22;8085;53.472;9.794;2023-06-01T02:20:12;12.00;88.50
15969;DHT22;8085;53.472;9.794;2023-06-01T02:22:42;12.00;91.90
15969;DHT22;8085;53.472;9.794;2023-06-01T02:25:09;11.90;92.20
15969;DHT22;8085;53.472;9.794;2023-06-01T02:28:06;11.90;94.60
15969;DHT22;8085;53.472;9.794;2023-06-01T02:30:34;11.90;96.10
15969;DHT22;8085;53.472;9.794;2023-06-01T02:33:45;11.90;96.00
15969;DHT22;8085;53.472;9.794;2023-06-01T02:37:06;11.80;94.90
15969;DHT22;8085;53.472;9.794;2023-06-01T02:40:07;11.80;96.40
15969;DHT22;8085;53.472;9.794;2023-06-01T02:43:01;11.80;94.70
15969;DHT22;8085;53.472;9.794;2023-06-01T02:45:29;11.80;93.10
15969;DHT22;8085;53.472;9.794;2023-06-01T02:48:16;11.70;93.10
15969;DHT22;8085;53.472;9.794;2023-06-01T02:50:50;11.80;93.50
15969;DHT22;8085;53.472;9.794;2023-06-01T02:53:39;11.70;93.70
15969;DHT22;8085;53.472;9.794;2023-06-01T02:59:36;11.70;92.30
15969;DHT22;8085;53.472;9.794;2023-06-01T03:05:25;11.70;94.10
15969;DHT22;8085;53.472;9.794;2023-06-01T03:11:35;11.70;92.90
15969;DHT22;8085;53.472;9.794;2023-06-01T03:15:17;11.70;92.00
15969;DHT22;8085;53.472;9.794;2023-06-01T03:24:09;11.60;91.60
15969;DHT22;8085;53.472;9.794;2023-06-01T03:27:09;11.60;90.80
15969;DHT22;8085;53.472;9.794;2023-06-01T03:29:52;11.60;89.50
15969;DHT22;8085;53.472;9.794;2023-06-01T03:32:28;11.60;77.10
15969;DHT22;8085;53.472;9.794;2023-06-01T03:39:07;11.70;82.60
15969;DHT22;8085;53.472;9.794;2023-06-01T03:41:51;11.80;84.30
15969;DHT22;8085;53.472;9.794;2023-06-01T03:44:24;11.70;77.00
15969;DHT22;8085;53.472;9.794;2023-06-01T03:46:54;11.70;79.90
15969;DHT22;8085;53.472;9.794;2023-06-01T03:49:23;11.70;80.70
15969;DHT22;8085;53.472;9.794;2023-06-01T03:52:16;11.70;78.70
15969;DHT22;8085;53.472;9.794;2023-06-01T03:54:43;11.70;79.80
15969;DHT22;8085;53.472;9.794;2023-06-01T03:57:13;11.80;83.20
15969;DHT22;8085;53.472;9.794;2023-06-01T03:59:42;11.80;86.70
15969;DHT22;8085;53.472;9.794;2023-06-01T04:02:14;11.80;88.50
15969;DHT22;8085;53.472;9.794;2023-06-01T04:05:21;11.80;91.60
15969;DHT22;8085;53.472;9.794;2023-06-01T04:07:58;11.70;94.90
15969;DHT22;8085;53.472;9.794;2023-06-01T04:10:30;11.70;92.00
15969;DHT22;8085;53.472;9.794;2023-06-01T04:13:37;11.70;71.10
15969;DHT22;8085;53.472;9.794;2023-06-01T04:16:13;11.70;60.20
15969;DHT22;8085;53.472;9.794;2023-06-01T04:18:55;11.70;51.10
15969;DHT22;8085;53.472;9.794;2023-06-01T04:21:44;11.70;43.50
15969;DHT22;8085;53.472;9.794;2023-06-01T04:26:06;11.70;50.80
15969;DHT22;8085;53.472;9.794;2023-06-01T04:55:44;11.90;63.00
15969;DHT22;8085;53.472;9.794;2023-06-01T04:59:23;12.00;66.20
15969;DHT22;8085;53.472;9.794;2023-06-01T05:02:55;12.00;71.30
15969;DHT22;8085;53.472;9.794;2023-06-01T05:06:13;12.10;77.10
15969;DHT22;8085;53.472;9.794;2023-06-01T05:09:22;12.00;80.80
15969;DHT22;8085;53.472;9.794;2023-06-01T05:12:12;12.10;74.80
15969;DHT22;8085;53.472;9.794;2023-06-01T05:15:01;12.00;79.10
15969;DHT22;8085;53.472;9.794;2023-06-01T05:20:56;12.00;72.90
15969;DHT22;8085;53.472;9.794;2023-06-01T05:23:28;12.00;67.80
15969;DHT22;8085;53.472;9.794;2023-06-01T05:25:58;12.00;56.80
15969;DHT22;8085;53.472;9.794;2023-06-01T05:28:56;12.00;52.00
15969;DHT22;8085;53.472;9.794;2023-06-01T05:38:29;12.10;45.70
15969;DHT22;8085;53.472;9.794;2023-06-01T05:45:11;12.20;49.00
15969;DHT22;8085;53.472;9.794;2023-06-01T05:57:24;12.20;58.90
15969;DHT22;8085;53.472;9.794;2023-06-01T06:00:06;12.30;66.40
15969;DHT22;8085;53.472;9.794;2023-06-01T06:02:37;12.20;88.90
15969;DHT22;8085;53.472;9.794;2023-06-01T06:05:05;12.20;84.00
15969;DHT22;8085;53.472;9.794;2023-06-01T06:07:32;12.20;90.00
15969;DHT22;8085;53.472;9.794;2023-06-01T06:09:59;12.20;85.60
15969;DHT22;8085;53.472;9.794;2023-06-01T06:12:26;12.30;84.80
15969;DHT22;8085;53.472;9.794;2023-06-01T06:14:53;12.40;47.20
15969;DHT22;8085;53.472;9.794;2023-06-01T06:17:20;12.40;34.20
15969;DHT22;8085;53.472;9.794;2023-06-01T06:19:48;12.40;29.50
15969;DHT22;8085;53.472;9.794;2023-06-01T06:22:15;12.40;26.90
15969;DHT22;8085;53.472;9.794;2023-06-01T06:24:42;12.40;20.70
15969;DHT22;8085;53.472;9.794;2023-06-01T06:27:20;12.50;17.90
15969;DHT22;8085;53.472;9.794;2023-06-01T06:29:47;12.50;13.10
15969;DHT22;8085;53.472;9.794;2023-06-01T06:32:14;12.50;9.70
15969;DHT22;8085;53.472;9.794;2023-06-01T06:34:41;12.50;24.30
15969;DHT22;8085;53.472;9.794;2023-06-01T06:37:09;12.60;26.90
15969;DHT22;8085;53.472;9.794;2023-06-01T06:39:37;12.70;7.10
15969;DHT22;8085;53.472;9.794;2023-06-01T06:42:05;12.60;2.70
15969;DHT22;8085;53.472;9.794;2023-06-01T06:44:32;12.60;1.00
15969;DHT22;8085;53.472;9.794;2023-06-01T06:46:59;12.60;1.00
15969;DHT22;8085;53.472;9.794;2023-06-01T06:49:26;12.60;11.20
15969;DHT22;8085;53.472;9.794;2023-06-01T06:51:55;12.60;12.00
15969;DHT22;8085;53.472;9.794;2023-06-01T06:54:24;12.60;10.40
15969;DHT22;8085;53.472;9.794;2023-06-01T06:56:56;12.70;1.00
15969;DHT22;8085;53.472;9.794;2023-06-01T06:59:23;12.70;1.00
15969;DHT22;8085;53.472;9.794;2023-06-01T07:01:58;12.70;1.00
15969;DHT22;8085;53.472;9.794;2023-06-01T07:04:29;12.80;1.00
15969;DHT22;8085;53.472;9.794;2023-06-01T07:06:56;12.80;1.00
15969;DHT22;8085;53.472;9.794;2023-06-01T07:09:24;12.70;1.00
15969;DHT22;8085;53.472;9.794;2023-06-01T07:11:51;12.70;1.00
15969;DHT22;8085;53.472;9.794;2023-06-01T07:14:18;12.70;1.00
15969;DHT22;8085;53.472;9.794;2023-06-01T07:16:45;12.80;1.00
15969;DHT22;8085;53.472;9.794;2023-06-01T07:19:12;12.70;1.00
15969;DHT22;8085;53.472;9.794;2023-06-01T07:21:39;12.70;1.00
15969;DHT22;8085;53.472;9.794;2023-06-01T07:24:07;12.60;1.00
15969;DHT22;8085;53.472;9.794;2023-06-01T07:26:36;12.70;1.00
15969;DHT22;8085;53.472;9.794;2023-06-01T07:29:03;12.80;1.00
15969;DHT22;8085;53.472;9.794;2023-06-01T07:31:32;12.70;1.00
15969;DHT22;8085;53.472;9.794;2023-06-01T07:33:59;12.80;1.00
15969;DHT22;8085;53.472;9.794;2023-06-01T07:36:27;12.90;1.00
15969;DHT22;8085;53.472;9.794;2023-06-01T07:38:59;12.90;1.00
15969;DHT22;8085;53.472;9.794;2023-06-01T07:41:26;12.80;1.00
15969;DHT22;8085;53.472;9.794;2023-06-01T07:43:54;12.80;1.00
15969;DHT22;8085;53.472;9.794;2023-06-01T07:46:21;12.80;1.00
15969;DHT22;8085;53.472;9.794;2023-06-01T07:48:48;12.90;1.00
15969;DHT22;8085;53.472;9.794;2023-06-01T07:51:16;12.90;1.00
15969;DHT22;8085;53.472;9.794;2023-06-01T07:53:43;13.00;1.00
15969;DHT22;8085;53.472;9.794;2023-06-01T07:56:23;13.10;1.00
15969;DHT22;8085;53.472;9.794;2023-06-01T07:58:53;13.10;1.00
15969;DHT22;8085;53.472;9.794;2023-06-01T08:01:21;13.20;1.00
15969;DHT22;8085;53.472;9.794;2023-06-01T08:03:48;13.10;1.00
15969;DHT22;8085;53.472;9.794;2023-06-01T08:06:17;13.30;1.00
15969;DHT22;8085;53.472;9.794;2023-06-01T08:08:44;13.30;1.00
15969;DHT22;8085;53.472;9.794;2023-06-01T08:11:17;13.20;1.00
15969;DHT22;8085;53.472;9.794;2023-06-01T08:13:44;13.30;1.00
15969;DHT22;8085;53.472;9.794;2023-06-01T08:16:13;13.30;1.00
15969;DHT22;8085;53.472;9.794;2023-06-01T08:18:41;13.20;1.00
15969;DHT22;8085;53.472;9.794;2023-06-01T08:21:08;13.10;1.00
15969;DHT22;8085;53.472;9.794;2023-06-01T08:23:35;13.20;1.00
15969;DHT22;8085;53.472;9.794;2023-06-01T08:26:08;13.10;1.00
15969;DHT22;8085;53.472;9.794;2023-06-01T08:28:36;13.20;1.00
15969;DHT22;8085;53.472;9.794;2023-06-01T08:31:05;13.20;1.00
15969;DHT22;8085;53.472;9.794;2023-06-01T08:33:37;13.20;1.00
15969;DHT22;8085;53.472;9.794;2023-06-01T08:36:12;13.20;1.00
15969;DHT22;8085;53.472;9.794;2023-06-01T08:38:54;13.30;1.00
15969;DHT22;8085;53.472;9.794;2023-06-01T08:41:53;13.40;1.00
15969;DHT22;8085;53.472;9.794;2023-06-01T08:47:46;13.70;1.00
15969;DHT22;8085;53.472;9.794;2023-06-01T08:50:19;13.70;1.00
15969;DHT22;8085;53.472;9.794;2023-06-01T08:53:12;13.70;1.00
15969;DHT22;8085;53.472;9.794;2023-06-01T09:02:32;13.80;1.00
15969;DHT22;8085;53.472;9.794;2023-06-01T09:04:59;13.90;1.00
15969;DHT22;8085;53.472;9.794;2023-06-01T09:07:39;13.80;1.00
15969;DHT22;8085;53.472;9.794;2023-06-01T09:10:11;13.90;1.00
15969;DHT22;8085;53.472;9.794;2023-06-01T09:12:38;13.80;1.00
15969;DHT22;8085;53.472;9.794;2023-06-01T09:15:09;13.70;1.00
15969;DHT22;8085;53.472;9.794;2023-06-01T09:17:37;13.50;1.00
15969;DHT22;8085;53.472;9.794;2023-06-01T09:20:05;13.60;1.00
15969;DHT22;8085;53.472;9.794;2023-06-01T09:22:41;13.60;1.00
15969;DHT22;8085;53.472;9.794;2023-06-01T09:25:09;13.70;1.00
15969;DHT22;8085;53.472;9.794;2023-06-01T09:27:49;13.60;1.00
15969;DHT22;8085;53.472;9.794;2023-06-01T09:30:37;13.60;1.00
15969;DHT22;8085;53.472;9.794;2023-06-01T09:33:12;13.80;1.00
15969;DHT22;8085;53.472;9.794;2023-06-01T09:35:42;13.80;1.00
15969;DHT22;8085;53.472;9.794;2023-06-01T09:38:20;13.90;1.00
15969;DHT22;8085;53.472;9.794;2023-06-01T09:40:58;14.00;1.00
15969;DHT22;8085;53.472;9.794;2023-06-01T09:43:56;14.10;1.00
15969;DHT22;8085;53.472;9.794;2023-06-01T09:46:38;14.10;1.00
15969;DHT22;8085;53.472;9.794;2023-06-01T09:49:21;14.20;1.00
15969;DHT22;8085;53.472;9.794;2023-06-01T09:52:07;14.10;1.00
15969;DHT22;8085;53.472;9.794;2023-06-01T09:54:41;14.10;1.00
15969;DHT22;8085;53.472;9.794;2023-06-01T09:57:09;13.90;1.00
15969;DHT22;8085;53.472;9.794;2023-06-01T09:59:41;13.80;1.00
15969;DHT22;8085;53.472;9.794;2023-06-01T10:02:11;14.00;1.00
15969;DHT22;8085;53.472;9.794;2023-06-01T10:04:40;14.10;99.90
15969;DHT22;8085;53.472;9.794;2023-06-01T10:07:08;14.30;99.90
15969;DHT22;8085;53.472;9.794;2023-06-01T10:09:39;14.50;99.90
15969;DHT22;8085;53.472;9.794;2023-06-01T10:12:08;14.50;99.90
15969;DHT22;8085;53.472;9.794;2023-06-01T10:14:37;14.60;99.90
15969;DHT22;8085;53.472;9.794;2023-06-01T10:17:05;14.50;99.90
15969;DHT22;8085;53.472;9.794;2023-06-01T10:19:33;14.50;99.90
15969;DHT22;8085;53.472;9.794;2023-06-01T10:22:02;14.60;99.90
15969;DHT22;8085;53.472;9.794;2023-06-01T10:24:30;14.60;99.90
15969;DHT22;8085;53.472;9.794;2023-06-01T10:27:05;14.70;99.90
15969;DHT22;8085;53.472;9.794;2023-06-01T10:29:34;14.80;99.90
15969;DHT22;8085;53.472;9.794;2023-06-01T10:32:01;14.70;99.90
15969;DHT22;8085;53.472;9.794;2023-06-01T10:34:39;14.50;99.90
15969;DHT22;8085;53.472;9.794;2023-06-01T10:37:17;14.50;1.00
15969;DHT22;8085;53.472;9.794;2023-06-01T10:39:44;14.60;1.00
15969;DHT22;8085;53.472;9.794;2023-06-01T10:42:40;14.50;1.00
15969;DHT22;8085;53.472;9.794;2023-06-01T10:47:50;14.20;1.00
15969;DHT22;8085;53.472;9.794;2023-06-01T10:50:17;14.20;99.90
15969;DHT22;8085;53.472;9.794;2023-06-01T10:52:45;14.30;99.90
15969;DHT22;8085;53.472;9.794;2023-06-01T10:55:26;14.40;99.90
15969;DHT22;8085;53.472;9.794;2023-06-01T10:58:21;14.60;99.90
15969;DHT22;8085;53.472;9.794;2023-06-01T11:00:54;14.70;99.90
15969;DHT22;8085;53.472;9.794;2023-06-01T11:03:44;14.60;99.90
15969;DHT22;8085;53.472;9.794;2023-06-01T11:06:24;14.50;1.00
15969;DHT22;8085;53.472;9.794;2023-06-01T11:08:54;14.50;99.90
15969;DHT22;8085;53.472;9.794;2023-06-01T11:11:21;14.60;99.90
15969;DHT22;8085;53.472;9.794;2023-06-01T11:14:11;14.70;99.90
15969;DHT22;8085;53.472;9.794;2023-06-01T11:16:39;14.80;99.90
15969;DHT22;8085;53.472;9.794;2023-06-01T11:19:07;14.80;99.90
15969;DHT22;8085;53.472;9.794;2023-06-01T11:21:38;14.90;99.90
15969;DHT22;8085;53.472;9.794;2023-06-01T11:24:10;14.70;34.00
15969;DHT22;8085;53.472;9.794;2023-06-01T11:26:41;14.70;99.90
15969;DHT22;8085;53.472;9.794;2023-06-01T11:29:15;14.70;99.90
15969;DHT22;8085;53.472;9.794;2023-06-01T11:31:44;14.90;28.70
15969;DHT22;8085;53.472;9.794;2023-06-01T11:34:12;15.00;1.00
15969;DHT22;8085;53.472;9.794;2023-06-01T11:36:42;15.20;99.90
15969;DHT22;8085;53.472;9.794;2023-06-01T11:39:27;15.20;1.00
15969;DHT22;8085;53.472;9.794;2023-06-01T11:42:04;15.20;99.90
15969;DHT22;8085;53.472;9.794;2023-06-01T11:44:34;15.30;99.90
15969;DHT22;8085;53.472;9.794;2023-06-01T11:47:01;15.20;99.90
15969;DHT22;8085;53.472;9.794;2023-06-01T11:49:29;15.10;99.90
15969;DHT22;8085;53.472;9.794;2023-06-01T11:51:56;15.30;1.00
15969;DHT22;8085;53.472;9.794;2023-06-01T11:54:24;15.40;99.90
15969;DHT22;8085;53.472;9.794;2023-06-01T11:56:52;15.30;1.00
15969;DHT22;8085;53.472;9.794;2023-06-01T11:59:19;15.40;81.30
15969;DHT22;8085;53.472;9.794;2023-06-01T12:01:50;15.30;99.90
15969;DHT22;8085;53.472;9.794;2023-06-01T12:04:22;15.30;99.90
15969;DHT22;8085;53.472;9.794;2023-06-01T12:06:51;15.40;1.00
15969;DHT22;8085;53.472;9.794;2023-06-01T12:09:18;15.10;99.90
15969;DHT22;8085;53.472;9.794;2023-06-01T12:11:46;15.00;99.90
15969;DHT22;8085;53.472;9.794;2023-06-01T12:14:14;15.00;1.00
15969;DHT22;8085;53.472;9.794;2023-06-01T12:16:56;15.10;1.00
15969;DHT22;8085;53.472;9.794;2023-06-01T12:19:25;15.30;1.00
15969;DHT22;8085;53.472;9.794;2023-06-01T12:21:55;15.50;1.00
15969;DHT22;8085;53.472;9.794;2023-06-01T12:24:26;15.40;1.00
15969;DHT22;8085;53.472;9.794;2023-06-01T12:26:55;15.20;99.90
15969;DHT22;8085;53.472;9.794;2023-06-01T12:29:38;15.20;1.00
15969;DHT22;8085;53.472;9.794;2023-06-01T12:32:09;15.30;99.90
15969;DHT22;8085;53.472;9.794;2023-06-01T12:34:37;15.30;1.00
15969;DHT22;8085;53.472;9.794;2023-06-01T12:37:11;15.30;99.90
15969;DHT22;8085;53.472;9.794;2023-06-01T12:39:42;15.20;1.00
15969;DHT22;8085;53.472;9.794;2023-06-01T12:42:10;15.10;20.30
15969;DHT22;8085;53.472;9.794;2023-06-01T12:44:39;15.00;1.00
15969;DHT22;8085;53.472;9.794;2023-06-01T12:47:09;15.00;1.00
15969;DHT22;8085;53.472;9.794;2023-06-01T12:49:36;14.80;1.00
15969;DHT22;8085;53.472;9.794;2023-06-01T12:52:04;14.80;1.00
15969;DHT22;8085;53.472;9.794;2023-06-01T12:54:31;14.80;21.90
15969;DHT22;8085;53.472;9.794;2023-06-01T12:56:58;15.10;99.90
15969;DHT22;8085;53.472;9.794;2023-06-01T12:59:25;15.30;99.90
15969;DHT22;8085;53.472;9.794;2023-06-01T13:01:52;15.30;1.00
15969;DHT22;8085;53.472;9.794;2023-06-01T13:04:21;15.70;99.90
15969;DHT22;8085;53.472;9.794;2023-06-01T13:06:48;15.80;1.00
15969;DHT22;8085;53.472;9.794;2023-06-01T13:09:16;15.70;1.00
15969;DHT22;8085;53.472;9.794;2023-06-01T13:11:43;15.60;1.00
15969;DHT22;8085;53.472;9.794;2023-06-01T13:14:10;15.60;27.90
15969;DHT22;8085;53.472;9.794;2023-06-01T13:16:37;15.60;1.00
15969;DHT22;8085;53.472;9.794;2023-06-01T13:19:05;15.50;99.90
15969;DHT22;8085;53.472;9.794;2023-06-01T13:21:35;15.60;1.00
15969;DHT22;8085;53.472;9.794;2023-06-01T13:24:05;15.50;99.90
15969;DHT22;8085;53.472;9.794;2023-06-01T13:26:33;15.60;1.00
15969;DHT22;8085;53.472;9.794;2023-06-01T13:29:03;15.80;1.00
15969;DHT22;8085;53.472;9.794;2023-06-01T13:31:32;16.10;99.90
15969;DHT22;8085;53.472;9.794;2023-06-01T13:34:01;16.30;1.00
15969;DHT22;8085;53.472;9.794;2023-06-01T13:36:28;16.00;1.00
15969;DHT22;8085;53.472;9.794;2023-06-01T13:38:56;15.80;1.00
15969;DHT22;8085;53.472;9.794;2023-06-01T13:41:23;15.70;1.00
15969;DHT22;8085;53.472;9.794;2023-06-01T13:43:50;15.50;99.90
15969;DHT22;8085;53.472;9.794;2023-06-01T13:46:17;15.60;1.00
15969;DHT22;8085;53.472;9.794;2023-06-01T13:48:44;15.70;1.00
15969;DHT22;8085;53.472;9.794;2023-06-01T13:51:14;15.60;99.90
15969;DHT22;8085;53.472;9.794;2023-06-01T13:53:44;15.80;1.00
15969;DHT22;8085;53.472;9.794;2023-06-01T13:56:12;15.70;99.90
15969;DHT22;8085;53.472;9.794;2023-06-01T13:58:39;15.80;99.90
15969;DHT22;8085;53.472;9.794;2023-06-01T14:01:07;16.00;99.90
15969;DHT22;8085;53.472;9.794;2023-06-01T14:03:35;16.20;99.90
15969;DHT22;8085;53.472;9.794;2023-06-01T14:06:02;16.50;1.00
15969;DHT22;8085;53.472;9.794;2023-06-01T14:08:29;16.80;1.00
15969;DHT22;8085;53.472;9.794;2023-06-01T14:10:56;16.80;1.00
15969;DHT22;8085;53.472;9.794;2023-06-01T14:13:25;16.60;1.00
15969;DHT22;8085;53.472;9.794;2023-06-01T14:15:54;16.50;1.00
15969;DHT22;8085;53.472;9.794;2023-06-01T14:18:21;16.40;99.90
15969;DHT22;8085;53.472;9.794;2023-06-01T14:20:48;16.40;99.90
15969;DHT22;8085;53.472;9.794;2023-06-01T14:23:16;16.70;1.00
15969;DHT22;8085;53.472;9.794;2023-06-01T14:25:43;16.60;99.90
15969;DHT22;8085;53.472;9.794;2023-06-01T14:28:10;16.80;99.90
15969;DHT22;8085;53.472;9.794;2023-06-01T14:30:39;16.90;1.00
15969;DHT22;8085;53.472;9.794;2023-06-01T14:33:05;16.80;99.90
15969;DHT22;8085;53.472;9.794;2023-06-01T14:35:32;16.60;99.90
15969;DHT22;8085;53.472;9.794;2023-06-01T14:38:00;16.10;1.00
15969;DHT22;8085;53.472;9.794;2023-06-01T14:40:27;16.10;1.00
15969;DHT22;8085;53.472;9.794;2023-06-01T14:42:53;16.40;99.90
15969;DHT22;8085;53.472;9.794;2023-06-01T14:45:20;16.70;1.00
15969;DHT22;8085;53.472;9.794;2023-06-01T14:47:49;16.40;99.90
15969;DHT22;8085;53.472;9.794;2023-06-01T14:50:17;16.30;30.70
15969;DHT22;8085;53.472;9.794;2023-06-01T14:52:45;16.60;99.90
15969;DHT22;8085;53.472;9.794;2023-06-01T14:55:13;16.80;99.90
15969;DHT22;8085;53.472;9.794;2023-06-01T14:57:42;16.70;99.90
15969;DHT22;8085;53.472;9.794;2023-06-01T15:00:10;16.40;1.00
15969;DHT22;8085;53.472;9.794;2023-06-01T15:02:37;16.30;99.90
15969;DHT22;8085;53.472;9.794;2023-06-01T15:05:06;16.10;99.90
15969;DHT22;8085;53.472;9.794;2023-06-01T15:07:33;16.10;99.90
15969;DHT22;8085;53.472;9.794;2023-06-01T15:09:59;15.90;1.00
15969;DHT22;8085;53.472;9.794;2023-06-01T15:12:26;15.80;1.00
15969;DHT22;8085;53.472;9.794;2023-06-01T15:14:53;15.70;99.90
15969;DHT22;8085;53.472;9.794;2023-06-01T15:17:20;16.00;99.90
15969;DHT22;8085;53.472;9.794;2023-06-01T15:19:47;16.50;1.00
15969;DHT22;8085;53.472;9.794;2023-06-01T15:22:15;16.40;1.00
15969;DHT22;8085;53.472;9.794;2023-06-01T15:24:42;16.20;99.90
15969;DHT22;8085;53.472;9.794;2023-06-01T15:27:09;16.20;1.00
15969;DHT22;8085;53.472;9.794;2023-06-01T15:29:36;16.50;99.90
15969;DHT22;8085;53.472;9.794;2023-06-01T15:32:03;16.30;99.90
15969;DHT22;8085;53.472;9.794;2023-06-01T15:34:30;16.00;1.00
15969;DHT22;8085;53.472;9.794;2023-06-01T15:36:57;15.90;99.90
15969;DHT22;8085;53.472;9.794;2023-06-01T15:39:26;16.00;94.30
15969;DHT22;8085;53.472;9.794;2023-06-01T15:41:52;16.10;1.00
15969;DHT22;8085;53.472;9.794;2023-06-01T15:44:19;16.10;1.00
15969;DHT22;8085;53.472;9.794;2023-06-01T15:46:46;15.70;1.00
15969;DHT22;8085;53.472;9.794;2023-06-01T15:49:13;15.60;99.90
15969;DHT22;8085;53.472;9.794;2023-06-01T15:51:41;15.80;1.00
15969;DHT22;8085;53.472;9.794;2023-06-01T15:54:07;15.80;1.00
15969;DHT22;8085;53.472;9.794;2023-06-01T15:56:36;15.80;1.00
15969;DHT22;8085;53.472;9.794;2023-06-01T15:59:03;15.90;99.90
15969;DHT22;8085;53.472;9.794;2023-06-01T16:01:29;15.70;1.00
15969;DHT22;8085;53.472;9.794;2023-06-01T16:03:56;15.60;1.00
15969;DHT22;8085;53.472;9.794;2023-06-01T16:06:23;15.50;99.90
15969;DHT22;8085;53.472;9.794;2023-06-01T16:08:50;15.40;99.90
15969;DHT22;8085;53.472;9.794;2023-06-01T16:11:17;15.50;1.00
15969;DHT22;8085;53.472;9.794;2023-06-01T16:13:45;15.70;99.90
15969;DHT22;8085;53.472;9.794;2023-06-01T16:16:12;15.80;99.90
15969;DHT22;8085;53.472;9.794;2023-06-01T16:18:39;15.90;1.00
15969;DHT22;8085;53.472;9.794;2023-06-01T16:21:06;15.90;1.00
15969;DHT22;8085;53.472;9.794;2023-06-01T16:23:35;15.80;1.00
15969;DHT22;8085;53.472;9.794;2023-06-01T16:26:02;15.60;99.90
15969;DHT22;8085;53.472;9.794;2023-06-01T16:28:29;15.40;99.90
15969;DHT22;8085;53.472;9.794;2023-06-01T16:30:58;15.10;99.90
15969;DHT22;8085;53.472;9.794;2023-06-01T16:33:24;15.00;1.00
15969;DHT22;8085;53.472;9.794;2023-06-01T16:35:51;15.10;1.00
15969;DHT22;8085;53.472;9.794;2023-06-01T16:38:18;15.00;99.90
15969;DHT22;8085;53.472;9.794;2023-06-01T16:40:45;14.80;1.00
15969;DHT22;8085;53.472;9.794;2023-06-01T16:43:12;14.80;1.00
15969;DHT22;8085;53.472;9.794;2023-06-01T16:45:43;14.90;99.90
15969;DHT22;8085;53.472;9.794;2023-06-01T16:48:11;14.80;1.00
15969;DHT22;8085;53.472;9.794;2023-06-01T16:50:39;14.70;1.00
15969;DHT22;8085;53.472;9.794;2023-06-01T16:53:11;14.80;1.00
15969;DHT22;8085;53.472;9.794;2023-06-01T16:55:39;14.90;1.00
15969;DHT22;8085;53.472;9.794;2023-06-01T16:58:09;14.90;1.00
15969;DHT22;8085;53.472;9.794;2023-06-01T17:00:36;15.10;1.00
15969;DHT22;8085;53.472;9.794;2023-06-01T17:03:03;15.10;99.90
15969;DHT22;8085;53.472;9.794;2023-06-01T17:05:31;15.00;99.90
15969;DHT22;8085;53.472;9.794;2023-06-01T17:07:59;15.00;62.00
15969;DHT22;8085;53.472;9.794;2023-06-01T17:10:26;15.00;99.90
15969;DHT22;8085;53.472;9.794;2023-06-01T17:12:53;14.80;99.90
15969;DHT22;8085;53.472;9.794;2023-06-01T17:15:20;14.70;99.90
15969;DHT22;8085;53.472;9.794;2023-06-01T17:17:47;14.60;1.00
15969;DHT22;8085;53.472;9.794;2023-06-01T17:20:14;14.40;1.00
15969;DHT22;8085;53.472;9.794;2023-06-01T17:22:42;14.20;99.90
15969;DHT22;8085;53.472;9.794;2023-06-01T17:25:10;14.20;1.00
15969;DHT22;8085;53.472;9.794;2023-06-01T17:27:37;14.00;99.90
15969;DHT22;8085;53.472;9.794;2023-06-01T17:30:07;14.10;99.90
15969;DHT22;8085;53.472;9.794;2023-06-01T17:32:34;14.10;1.00
15969;DHT22;8085;53.472;9.794;2023-06-01T17:35:01;14.20;1.00
15969;DHT22;8085;53.472;9.794;2023-06-01T17:37:28;14.20;1.00
15969;DHT22;8085;53.472;9.794;2023-06-01T17:39:56;14.20;1.00
15969;DHT22;8085;53.472;9.794;2023-06-01T17:42:24;14.00;99.90
15969;DHT22;8085;53.472;9.794;2023-06-01T17:44:51;13.90;1.00
15969;DHT22;8085;53.472;9.794;2023-06-01T17:47:18;13.70;1.00
15969;DHT22;8085;53.472;9.794;2023-06-01T17:49:54;13.50;99.30
15969;DHT22;8085;53.472;9.794;2023-06-01T17:52:21;13.50;1.00